Gilboa, Ohio
Current Conditions -  °F | °C
As of 1:17 AM on Thursday 23 Oct 2014 (Local Time) from KFDY Reporting Station
Overcast Overcast  
Wind Chill: 42°   Ceiling: 2800
Heat Index: 44°   Visibility: 10mi
Dew Point: 39°   Wind: 5mph
Humidity: 82%   Direction: 310°NW
Pressure: 30.26"   Gusts: NA
Location:  41.0234°N, 84.0654°W
Report Text: KFDY 230517Z AUTO 31004KT 10SM OVC028 07/04 A3026 RMK AO2 T00670039
Loading
Personal Weather Stations






























Interactive Weather Map
Tropical Storm Tracking
New forecast layout! Learn more

10-Day Weather Forecast

Advertisements
Track Severe Weather on mobile